sensor_id;sensor_type;location;lat;lon;timestamp;temperature;humidity
62589;DHT22;58504;48.770;9.148;2023-06-10T00:00:02;23.90;54.00
62589;DHT22;58504;48.770;9.148;2023-06-10T00:02:31;23.90;54.10
62589;DHT22;58504;48.770;9.148;2023-06-10T00:04:59;23.90;54.10
62589;DHT22;58504;48.770;9.148;2023-06-10T00:07:26;23.80;54.00
62589;DHT22;58504;48.770;9.148;2023-06-10T00:09:52;23.80;54.00
62589;DHT22;58504;48.770;9.148;2023-06-10T00:12:20;23.80;54.00
62589;DHT22;58504;48.770;9.148;2023-06-10T00:14:47;23.80;54.10
62589;DHT22;58504;48.770;9.148;2023-06-10T00:17:15;23.80;54.10
62589;DHT22;58504;48.770;9.148;2023-06-10T00:19:42;23.80;54.10
62589;DHT22;58504;48.770;9.148;2023-06-10T00:22:10;23.80;54.10
62589;DHT22;58504;48.770;9.148;2023-06-10T00:24:37;23.80;54.10
62589;DHT22;58504;48.770;9.148;2023-06-10T00:27:05;23.80;54.10
62589;DHT22;58504;48.770;9.148;2023-06-10T00:29:32;23.80;54.10
62589;DHT22;58504;48.770;9.148;2023-06-10T00:31:59;23.80;54.10
62589;DHT22;58504;48.770;9.148;2023-06-10T00:34:25;23.80;54.20
62589;DHT22;58504;48.770;9.148;2023-06-10T00:36:52;23.80;54.10
62589;DHT22;58504;48.770;9.148;2023-06-10T00:39:20;23.80;54.10
62589;DHT22;58504;48.770;9.148;2023-06-10T00:41:47;23.80;54.10
62589;DHT22;58504;48.770;9.148;2023-06-10T00:44:14;23.80;54.10
62589;DHT22;58504;48.770;9.148;2023-06-10T00:46:40;23.80;54.20
62589;DHT22;58504;48.770;9.148;2023-06-10T00:49:07;23.80;54.20
62589;DHT22;58504;48.770;9.148;2023-06-10T00:51:35;23.80;54.10
62589;DHT22;58504;48.770;9.148;2023-06-10T00:54:02;23.80;54.10
62589;DHT22;58504;48.770;9.148;2023-06-10T00:56:31;23.80;54.20
62589;DHT22;58504;48.770;9.148;2023-06-10T00:59:00;23.80;54.20
62589;DHT22;58504;48.770;9.148;2023-06-10T01:01:27;23.80;54.20
62589;DHT22;58504;48.770;9.148;2023-06-10T01:03:54;23.80;54.20
62589;DHT22;58504;48.770;9.148;2023-06-10T01:06:31;23.80;54.20
62589;DHT22;58504;48.770;9.148;2023-06-10T01:09:04;23.80;54.10
62589;DHT22;58504;48.770;9.148;2023-06-10T01:11:40;23.80;54.10
62589;DHT22;58504;48.770;9.148;2023-06-10T01:14:09;23.80;54.20
62589;DHT22;58504;48.770;9.148;2023-06-10T01:16:37;23.80;54.20
62589;DHT22;58504;48.770;9.148;2023-06-10T01:19:06;23.80;54.20
62589;DHT22;58504;48.770;9.148;2023-06-10T01:21:34;23.80;54.20
62589;DHT22;58504;48.770;9.148;2023-06-10T01:24:01;23.70;54.10
62589;DHT22;58504;48.770;9.148;2023-06-10T01:26:31;23.70;54.10
62589;DHT22;58504;48.770;9.148;2023-06-10T01:29:02;23.70;54.10
62589;DHT22;58504;48.770;9.148;2023-06-10T01:31:36;23.70;54.10
62589;DHT22;58504;48.770;9.148;2023-06-10T01:34:08;23.70;54.10
62589;DHT22;58504;48.770;9.148;2023-06-10T01:36:37;23.80;54.20
62589;DHT22;58504;48.770;9.148;2023-06-10T01:39:05;23.80;54.20
62589;DHT22;58504;48.770;9.148;2023-06-10T01:41:32;23.80;54.20
62589;DHT22;58504;48.770;9.148;2023-06-10T01:44:01;23.80;54.20
62589;DHT22;58504;48.770;9.148;2023-06-10T01:46:28;23.70;54.20
62589;DHT22;58504;48.770;9.148;2023-06-10T01:48:55;23.70;54.20
62589;DHT22;58504;48.770;9.148;2023-06-10T01:51:22;23.70;54.20
62589;DHT22;58504;48.770;9.148;2023-06-10T01:53:50;23.80;54.30
62589;DHT22;58504;48.770;9.148;2023-06-10T01:56:17;23.70;54.30
62589;DHT22;58504;48.770;9.148;2023-06-10T01:58:45;23.70;54.20
62589;DHT22;58504;48.770;9.148;2023-06-10T02:01:12;23.70;54.20
62589;DHT22;58504;48.770;9.148;2023-06-10T02:03:39;23.70;54.20
62589;DHT22;58504;48.770;9.148;2023-06-10T02:06:05;23.70;54.20
62589;DHT22;58504;48.770;9.148;2023-06-10T02:08:32;23.70;54.20
62589;DHT22;58504;48.770;9.148;2023-06-10T02:11:00;23.70;54.30
62589;DHT22;58504;48.770;9.148;2023-06-10T02:13:27;23.70;54.30
62589;DHT22;58504;48.770;9.148;2023-06-10T02:15:54;23.70;54.20
62589;DHT22;58504;48.770;9.148;2023-06-10T02:18:20;23.70;54.30
62589;DHT22;58504;48.770;9.148;2023-06-10T02:20:47;23.70;54.30
62589;DHT22;58504;48.770;9.148;2023-06-10T02:23:14;23.70;54.30
62589;DHT22;58504;48.770;9.148;2023-06-10T02:25:41;23.80;54.30
62589;DHT22;58504;48.770;9.148;2023-06-10T02:28:09;23.70;54.30
62589;DHT22;58504;48.770;9.148;2023-06-10T02:30:38;23.70;54.30
62589;DHT22;58504;48.770;9.148;2023-06-10T02:33:05;23.70;54.30
62589;DHT22;58504;48.770;9.148;2023-06-10T02:35:35;23.70;54.30
62589;DHT22;58504;48.770;9.148;2023-06-10T02:38:02;23.70;54.20
62589;DHT22;58504;48.770;9.148;2023-06-10T02:40:29;23.70;54.20
62589;DHT22;58504;48.770;9.148;2023-06-10T02:42:56;23.70;54.20
62589;DHT22;58504;48.770;9.148;2023-06-10T02:45:24;23.70;54.20
62589;DHT22;58504;48.770;9.148;2023-06-10T02:47:51;23.70;54.20
62589;DHT22;58504;48.770;9.148;2023-06-10T02:50:18;23.70;54.20
62589;DHT22;58504;48.770;9.148;2023-06-10T02:52:45;23.70;54.20
62589;DHT22;58504;48.770;9.148;2023-06-10T02:55:11;23.70;54.20
62589;DHT22;58504;48.770;9.148;2023-06-10T02:57:38;23.70;54.20
62589;DHT22;58504;48.770;9.148;2023-06-10T03:00:07;23.70;54.20
62589;DHT22;58504;48.770;9.148;2023-06-10T03:02:37;23.70;54.20
62589;DHT22;58504;48.770;9.148;2023-06-10T03:05:05;23.70;54.20
62589;DHT22;58504;48.770;9.148;2023-06-10T03:07:35;23.70;54.20
62589;DHT22;58504;48.770;9.148;2023-06-10T03:10:02;23.70;54.20
62589;DHT22;58504;48.770;9.148;2023-06-10T03:12:29;23.70;54.30
62589;DHT22;58504;48.770;9.148;2023-06-10T03:14:56;23.70;54.20
62589;DHT22;58504;48.770;9.148;2023-06-10T03:17:23;23.70;54.20
62589;DHT22;58504;48.770;9.148;2023-06-10T03:19:51;23.70;54.20
62589;DHT22;58504;48.770;9.148;2023-06-10T03:22:18;23.70;54.20
62589;DHT22;58504;48.770;9.148;2023-06-10T03:24:46;23.70;54.30
62589;DHT22;58504;48.770;9.148;2023-06-10T03:27:15;23.70;54.20
62589;DHT22;58504;48.770;9.148;2023-06-10T03:29:43;23.70;54.20
62589;DHT22;58504;48.770;9.148;2023-06-10T03:32:09;23.70;54.20
62589;DHT22;58504;48.770;9.148;2023-06-10T03:34:36;23.70;54.30
62589;DHT22;58504;48.770;9.148;2023-06-10T03:37:05;23.70;54.20
62589;DHT22;58504;48.770;9.148;2023-06-10T03:39:32;23.70;54.30
62589;DHT22;58504;48.770;9.148;2023-06-10T03:41:59;23.70;54.20
62589;DHT22;58504;48.770;9.148;2023-06-10T03:44:26;23.70;54.20
62589;DHT22;58504;48.770;9.148;2023-06-10T03:46:53;23.70;54.20
62589;DHT22;58504;48.770;9.148;2023-06-10T03:49:20;23.70;54.20
62589;DHT22;58504;48.770;9.148;2023-06-10T03:51:47;23.70;54.20
62589;DHT22;58504;48.770;9.148;2023-06-10T03:54:15;23.70;54.20
62589;DHT22;58504;48.770;9.148;2023-06-10T03:56:41;23.70;54.20
62589;DHT22;58504;48.770;9.148;2023-06-10T03:59:08;23.70;54.20
62589;DHT22;58504;48.770;9.148;2023-06-10T04:01:35;23.70;54.20
62589;DHT22;58504;48.770;9.148;2023-06-10T04:04:03;23.70;54.10
62589;DHT22;58504;48.770;9.148;2023-06-10T04:06:29;23.70;54.10
62589;DHT22;58504;48.770;9.148;2023-06-10T04:08:57;23.70;54.10
62589;DHT22;58504;48.770;9.148;2023-06-10T04:11:25;23.70;54.10
62589;DHT22;58504;48.770;9.148;2023-06-10T04:13:52;23.70;54.10
62589;DHT22;58504;48.770;9.148;2023-06-10T04:16:19;23.70;54.10
62589;DHT22;58504;48.770;9.148;2023-06-10T04:18:47;23.70;54.10
62589;DHT22;58504;48.770;9.148;2023-06-10T04:21:13;23.70;54.00
62589;DHT22;58504;48.770;9.148;2023-06-10T04:23:40;23.70;54.00
62589;DHT22;58504;48.770;9.148;2023-06-10T04:26:07;23.70;54.00
62589;DHT22;58504;48.770;9.148;2023-06-10T04:28:35;23.70;54.00
62589;DHT22;58504;48.770;9.148;2023-06-10T04:31:02;23.80;54.00
62589;DHT22;58504;48.770;9.148;2023-06-10T04:33:29;23.80;54.00
62589;DHT22;58504;48.770;9.148;2023-06-10T04:35:56;23.80;53.90
62589;DHT22;58504;48.770;9.148;2023-06-10T04:38:23;23.80;53.90
62589;DHT22;58504;48.770;9.148;2023-06-10T04:40:50;23.80;53.90
62589;DHT22;58504;48.770;9.148;2023-06-10T04:43:16;23.80;53.80
62589;DHT22;58504;48.770;9.148;2023-06-10T04:45:45;23.90;53.90
62589;DHT22;58504;48.770;9.148;2023-06-10T04:48:12;23.80;53.80
62589;DHT22;58504;48.770;9.148;2023-06-10T04:50:39;23.80;53.70
62589;DHT22;58504;48.770;9.148;2023-06-10T04:53:06;23.90;53.80
62589;DHT22;58504;48.770;9.148;2023-06-10T04:55:33;23.90;53.70
62589;DHT22;58504;48.770;9.148;2023-06-10T04:58:00;23.90;53.70
62589;DHT22;58504;48.770;9.148;2023-06-10T05:00:26;23.90;53.70
62589;DHT22;58504;48.770;9.148;2023-06-10T05:02:54;23.90;53.60
62589;DHT22;58504;48.770;9.148;2023-06-10T05:05:21;24.00;53.70
62589;DHT22;58504;48.770;9.148;2023-06-10T05:07:48;24.00;53.70
62589;DHT22;58504;48.770;9.148;2023-06-10T05:10:15;23.90;53.50
62589;DHT22;58504;48.770;9.148;2023-06-10T05:12:42;24.00;53.50
62589;DHT22;58504;48.770;9.148;2023-06-10T05:15:10;24.00;53.50
62589;DHT22;58504;48.770;9.148;2023-06-10T05:17:37;24.00;53.50
62589;DHT22;58504;48.770;9.148;2023-06-10T05:20:06;24.00;53.50
62589;DHT22;58504;48.770;9.148;2023-06-10T05:22:33;24.00;53.40
62589;DHT22;58504;48.770;9.148;2023-06-10T05:25:00;24.00;53.30
62589;DHT22;58504;48.770;9.148;2023-06-10T05:27:28;24.10;53.40
62589;DHT22;58504;48.770;9.148;2023-06-10T05:29:55;24.10;53.40
62589;DHT22;58504;48.770;9.148;2023-06-10T05:32:22;24.10;53.30
62589;DHT22;58504;48.770;9.148;2023-06-10T05:34:48;24.10;53.20
62589;DHT22;58504;48.770;9.148;2023-06-10T05:37:17;24.10;53.20
62589;DHT22;58504;48.770;9.148;2023-06-10T05:39:43;24.20;53.20
62589;DHT22;58504;48.770;9.148;2023-06-10T05:42:10;24.20;53.20
62589;DHT22;58504;48.770;9.148;2023-06-10T05:44:37;24.20;53.10
62589;DHT22;58504;48.770;9.148;2023-06-10T05:47:04;24.20;53.10
62589;DHT22;58504;48.770;9.148;2023-06-10T05:49:31;24.20;53.00
62589;DHT22;58504;48.770;9.148;2023-06-10T05:51:58;24.30;53.10
62589;DHT22;58504;48.770;9.148;2023-06-10T05:54:26;24.30;53.00
62589;DHT22;58504;48.770;9.148;2023-06-10T05:56:53;24.30;53.00
62589;DHT22;58504;48.770;9.148;2023-06-10T05:59:20;24.30;52.90
62589;DHT22;58504;48.770;9.148;2023-06-10T06:01:48;24.30;52.90
62589;DHT22;58504;48.770;9.148;2023-06-10T06:04:15;24.40;52.90
62589;DHT22;58504;48.770;9.148;2023-06-10T06:06:42;24.40;52.80
62589;DHT22;58504;48.770;9.148;2023-06-10T06:09:08;24.40;52.70
62589;DHT22;58504;48.770;9.148;2023-06-10T06:11:36;24.50;52.70
62589;DHT22;58504;48.770;9.148;2023-06-10T06:14:03;24.50;52.70
62589;DHT22;58504;48.770;9.148;2023-06-10T06:16:30;24.50;52.60
62589;DHT22;58504;48.770;9.148;2023-06-10T06:18:57;24.60;52.60
62589;DHT22;58504;48.770;9.148;2023-06-10T06:21:24;24.50;52.40
62589;DHT22;58504;48.770;9.148;2023-06-10T06:23:50;24.60;52.40
62589;DHT22;58504;48.770;9.148;2023-06-10T06:26:17;24.60;52.30
62589;DHT22;58504;48.770;9.148;2023-06-10T06:28:45;24.70;52.30
62589;DHT22;58504;48.770;9.148;2023-06-10T06:31:12;24.70;52.20
62589;DHT22;58504;48.770;9.148;2023-06-10T06:33:39;24.70;52.20
62589;DHT22;58504;48.770;9.148;2023-06-10T06:36:05;24.70;52.10
62589;DHT22;58504;48.770;9.148;2023-06-10T06:38:32;24.70;52.00
62589;DHT22;58504;48.770;9.148;2023-06-10T06:40:59;24.80;52.00
62589;DHT22;58504;48.770;9.148;2023-06-10T06:43:29;24.90;52.00
62589;DHT22;58504;48.770;9.148;2023-06-10T06:45:58;24.90;51.90
62589;DHT22;58504;48.770;9.148;2023-06-10T06:48:24;24.90;51.70
62589;DHT22;58504;48.770;9.148;2023-06-10T06:50:51;24.90;51.70
62589;DHT22;58504;48.770;9.148;2023-06-10T06:53:18;25.00;51.70
62589;DHT22;58504;48.770;9.148;2023-06-10T06:55:45;25.00;51.60
62589;DHT22;58504;48.770;9.148;2023-06-10T06:58:11;25.10;51.50
62589;DHT22;58504;48.770;9.148;2023-06-10T07:00:38;25.10;51.40
62589;DHT22;58504;48.770;9.148;2023-06-10T07:03:06;25.10;51.40
62589;DHT22;58504;48.770;9.148;2023-06-10T07:05:33;25.10;51.30
62589;DHT22;58504;48.770;9.148;2023-06-10T07:08:00;25.20;51.20
62589;DHT22;58504;48.770;9.148;2023-06-10T07:10:28;25.30;51.20
62589;DHT22;58504;48.770;9.148;2023-06-10T07:12:55;25.30;51.10
62589;DHT22;58504;48.770;9.148;2023-06-10T07:15:21;25.30;51.00
62589;DHT22;58504;48.770;9.148;2023-06-10T07:17:48;25.30;50.90
62589;DHT22;58504;48.770;9.148;2023-06-10T07:20:16;25.40;50.80
62589;DHT22;58504;48.770;9.148;2023-06-10T07:22:43;25.40;50.70
62589;DHT22;58504;48.770;9.148;2023-06-10T07:25:10;25.50;50.70
62589;DHT22;58504;48.770;9.148;2023-06-10T07:27:37;25.50;50.50
62589;DHT22;58504;48.770;9.148;2023-06-10T07:30:05;25.60;50.50
62589;DHT22;58504;48.770;9.148;2023-06-10T07:32:33;25.60;50.30
62589;DHT22;58504;48.770;9.148;2023-06-10T07:35:00;25.70;50.20
62589;DHT22;58504;48.770;9.148;2023-06-10T07:37:28;25.80;50.10
62589;DHT22;58504;48.770;9.148;2023-06-10T07:39:56;25.80;49.90
62589;DHT22;58504;48.770;9.148;2023-06-10T07:42:23;26.10;49.50
62589;DHT22;58504;48.770;9.148;2023-06-10T07:44:50;26.40;48.80
62589;DHT22;58504;48.770;9.148;2023-06-10T07:47:16;26.90;47.90
62589;DHT22;58504;48.770;9.148;2023-06-10T07:49:43;27.70;46.60
62589;DHT22;58504;48.770;9.148;2023-06-10T07:52:10;28.40;45.20
62589;DHT22;58504;48.770;9.148;2023-06-10T07:54:38;29.00;44.10
62589;DHT22;58504;48.770;9.148;2023-06-10T07:57:05;29.40;43.10
62589;DHT22;58504;48.770;9.148;2023-06-10T07:59:33;29.90;42.30
62589;DHT22;58504;48.770;9.148;2023-06-10T08:02:00;30.30;41.40
62589;DHT22;58504;48.770;9.148;2023-06-10T08:04:26;30.70;40.70
62589;DHT22;58504;48.770;9.148;2023-06-10T08:06:53;31.00;40.10
62589;DHT22;58504;48.770;9.148;2023-06-10T08:09:20;31.20;39.90
62589;DHT22;58504;48.770;9.148;2023-06-10T08:11:49;31.10;40.00
62589;DHT22;58504;48.770;9.148;2023-06-10T08:14:16;30.60;40.50
62589;DHT22;58504;48.770;9.148;2023-06-10T08:16:43;29.90;41.40
62589;DHT22;58504;48.770;9.148;2023-06-10T08:19:10;29.50;42.00
62589;DHT22;58504;48.770;9.148;2023-06-10T08:21:37;29.40;42.60
62589;DHT22;58504;48.770;9.148;2023-06-10T08:24:05;29.00;43.10
62589;DHT22;58504;48.770;9.148;2023-06-10T08:26:32;28.60;43.60
62589;DHT22;58504;48.770;9.148;2023-06-10T08:29:00;28.50;44.10
62589;DHT22;58504;48.770;9.148;2023-06-10T08:31:27;28.40;44.30
62589;DHT22;58504;48.770;9.148;2023-06-10T08:33:54;28.40;44.30
62589;DHT22;58504;48.770;9.148;2023-06-10T08:36:20;28.50;44.20
62589;DHT22;58504;48.770;9.148;2023-06-10T08:38:47;28.60;44.00
62589;DHT22;58504;48.770;9.148;2023-06-10T08:41:17;28.80;43.70
62589;DHT22;58504;48.770;9.148;2023-06-10T08:43:51;29.00;43.20
62589;DHT22;58504;48.770;9.148;2023-06-10T08:46:20;29.40;42.50
62589;DHT22;58504;48.770;9.148;2023-06-10T08:48:49;29.80;41.60
62589;DHT22;58504;48.770;9.148;2023-06-10T08:51:18;30.40;40.40
62589;DHT22;58504;48.770;9.148;2023-06-10T08:53:49;31.50;39.00
62589;DHT22;58504;48.770;9.148;2023-06-10T08:56:17;32.20;37.50
62589;DHT22;58504;48.770;9.148;2023-06-10T08:58:45;32.60;36.50
62589;DHT22;58504;48.770;9.148;2023-06-10T09:01:12;32.90;35.80
62589;DHT22;58504;48.770;9.148;2023-06-10T09:03:41;33.00;35.50
62589;DHT22;58504;48.770;9.148;2023-06-10T09:06:09;33.20;35.40
62589;DHT22;58504;48.770;9.148;2023-06-10T09:08:36;33.40;35.10
62589;DHT22;58504;48.770;9.148;2023-06-10T09:11:04;33.70;34.70
62589;DHT22;58504;48.770;9.148;2023-06-10T09:13:30;34.10;34.30
62589;DHT22;58504;48.770;9.148;2023-06-10T09:15:58;34.20;33.90
62589;DHT22;58504;48.770;9.148;2023-06-10T09:18:26;34.50;33.50
62589;DHT22;58504;48.770;9.148;2023-06-10T09:20:55;34.60;33.10
62589;DHT22;58504;48.770;9.148;2023-06-10T09:23:21;34.80;32.90
62589;DHT22;58504;48.770;9.148;2023-06-10T09:25:56;34.80;32.60
62589;DHT22;58504;48.770;9.148;2023-06-10T09:28:23;34.80;32.60
62589;DHT22;58504;48.770;9.148;2023-06-10T09:30:50;34.60;32.60
62589;DHT22;58504;48.770;9.148;2023-06-10T09:33:28;34.50;32.80
62589;DHT22;58504;48.770;9.148;2023-06-10T09:35:56;34.40;32.90
62589;DHT22;58504;48.770;9.148;2023-06-10T09:38:29;34.10;33.40
62589;DHT22;58504;48.770;9.148;2023-06-10T09:40:56;33.70;33.80
62589;DHT22;58504;48.770;9.148;2023-06-10T09:43:38;33.40;34.50
62589;DHT22;58504;48.770;9.148;2023-06-10T09:46:05;33.40;34.60
62589;DHT22;58504;48.770;9.148;2023-06-10T09:48:34;33.30;34.60
62589;DHT22;58504;48.770;9.148;2023-06-10T09:51:08;33.30;34.70
62589;DHT22;58504;48.770;9.148;2023-06-10T09:53:35;33.30;34.70
62589;DHT22;58504;48.770;9.148;2023-06-10T09:56:02;33.50;34.50
62589;DHT22;58504;48.770;9.148;2023-06-10T09:58:37;33.90;34.10
62589;DHT22;58504;48.770;9.148;2023-06-10T10:01:10;34.60;33.60
62589;DHT22;58504;48.770;9.148;2023-06-10T10:03:44;35.10;32.90
62589;DHT22;58504;48.770;9.148;2023-06-10T10:06:14;35.40;32.40
62589;DHT22;58504;48.770;9.148;2023-06-10T10:08:41;35.60;32.10
62589;DHT22;58504;48.770;9.148;2023-06-10T10:11:09;35.70;31.90
62589;DHT22;58504;48.770;9.148;2023-06-10T10:13:37;34.90;31.90
62589;DHT22;58504;48.770;9.148;2023-06-10T10:16:10;33.80;33.70
62589;DHT22;58504;48.770;9.148;2023-06-10T10:18:39;33.30;34.90
62589;DHT22;58504;48.770;9.148;2023-06-10T10:21:11;32.30;36.40
62589;DHT22;58504;48.770;9.148;2023-06-10T10:23:44;31.70;37.30
62589;DHT22;58504;48.770;9.148;2023-06-10T10:26:11;31.20;39.40
62589;DHT22;58504;48.770;9.148;2023-06-10T10:28:45;30.90;39.10
62589;DHT22;58504;48.770;9.148;2023-06-10T10:31:15;30.30;40.10
62589;DHT22;58504;48.770;9.148;2023-06-10T10:33:51;29.80;41.10
62589;DHT22;58504;48.770;9.148;2023-06-10T10:36:19;29.30;41.90
62589;DHT22;58504;48.770;9.148;2023-06-10T10:38:47;29.00;42.70
62589;DHT22;58504;48.770;9.148;2023-06-10T10:41:15;28.70;43.40
62589;DHT22;58504;48.770;9.148;2023-06-10T10:43:44;28.40;43.80
62589;DHT22;58504;48.770;9.148;2023-06-10T10:46:12;28.20;44.30
62589;DHT22;58504;48.770;9.148;2023-06-10T10:48:40;28.00;44.70
62589;DHT22;58504;48.770;9.148;2023-06-10T10:51:07;27.90;45.00
62589;DHT22;58504;48.770;9.148;2023-06-10T10:53:36;27.80;45.40
62589;DHT22;58504;48.770;9.148;2023-06-10T10:56:06;27.70;45.60
62589;DHT22;58504;48.770;9.148;2023-06-10T10:58:34;27.60;45.90
62589;DHT22;58504;48.770;9.148;2023-06-10T11:01:10;27.50;46.10
62589;DHT22;58504;48.770;9.148;2023-06-10T11:03:42;27.40;46.30
62589;DHT22;58504;48.770;9.148;2023-06-10T11:06:12;27.40;46.50
62589;DHT22;58504;48.770;9.148;2023-06-10T11:08:46;27.30;46.80
62589;DHT22;58504;48.770;9.148;2023-06-10T11:11:24;27.20;46.80
62589;DHT22;58504;48.770;9.148;2023-06-10T11:14:07;27.20;47.00
62589;DHT22;58504;48.770;9.148;2023-06-10T11:16:39;27.10;47.00
62589;DHT22;58504;48.770;9.148;2023-06-10T11:19:07;27.10;47.20
62589;DHT22;58504;48.770;9.148;2023-06-10T11:21:57;27.00;47.30
62589;DHT22;58504;48.770;9.148;2023-06-10T11:24:24;26.90;47.50
62589;DHT22;58504;48.770;9.148;2023-06-10T11:26:52;26.90;47.70
62589;DHT22;58504;48.770;9.148;2023-06-10T11:29:19;26.90;47.90
62589;DHT22;58504;48.770;9.148;2023-06-10T11:31:49;26.80;48.30
62589;DHT22;58504;48.770;9.148;2023-06-10T11:34:24;26.80;48.10
62589;DHT22;58504;48.770;9.148;2023-06-10T11:36:52;26.70;48.10
62589;DHT22;58504;48.770;9.148;2023-06-10T11:39:20;26.70;48.20
62589;DHT22;58504;48.770;9.148;2023-06-10T11:41:50;26.70;48.20
62589;DHT22;58504;48.770;9.148;2023-06-10T11:44:19;26.70;48.30
62589;DHT22;58504;48.770;9.148;2023-06-10T11:46:48;26.60;48.40
62589;DHT22;58504;48.770;9.148;2023-06-10T11:49:15;26.60;48.40
62589;DHT22;58504;48.770;9.148;2023-06-10T11:51:42;26.60;48.50
62589;DHT22;58504;48.770;9.148;2023-06-10T11:54:14;26.50;48.60
62589;DHT22;58504;48.770;9.148;2023-06-10T11:56:41;26.50;48.70
62589;DHT22;58504;48.770;9.148;2023-06-10T11:59:08;26.50;48.80
62589;DHT22;58504;48.770;9.148;2023-06-10T12:01:37;26.50;48.90
62589;DHT22;58504;48.770;9.148;2023-06-10T12:04:07;26.40;48.90
62589;DHT22;58504;48.770;9.148;2023-06-10T12:06:41;26.40;48.90
62589;DHT22;58504;48.770;9.148;2023-06-10T12:09:14;26.40;49.00
62589;DHT22;58504;48.770;9.148;2023-06-10T12:11:41;26.30;49.00
62589;DHT22;58504;48.770;9.148;2023-06-10T12:14:08;26.30;49.10
62589;DHT22;58504;48.770;9.148;2023-06-10T12:16:37;26.20;49.20
62589;DHT22;58504;48.770;9.148;2023-06-10T12:19:04;26.30;49.30
62589;DHT22;58504;48.770;9.148;2023-06-10T12:21:33;26.30;49.40
62589;DHT22;58504;48.770;9.148;2023-06-10T12:24:06;26.20;49.30
62589;DHT22;58504;48.770;9.148;2023-06-10T12:26:37;26.20;49.40
62589;DHT22;58504;48.770;9.148;2023-06-10T12:29:21;26.20;49.40
62589;DHT22;58504;48.770;9.148;2023-06-10T12:31:58;26.20;49.40
62589;DHT22;58504;48.770;9.148;2023-06-10T12:34:30;26.20;49.50
62589;DHT22;58504;48.770;9.148;2023-06-10T12:36:57;26.20;49.50
62589;DHT22;58504;48.770;9.148;2023-06-10T12:39:24;26.20;49.50
62589;DHT22;58504;48.770;9.148;2023-06-10T12:41:51;26.10;49.60
62589;DHT22;58504;48.770;9.148;2023-06-10T12:44:19;26.10;49.70
62589;DHT22;58504;48.770;9.148;2023-06-10T12:46:54;26.10;49.70
62589;DHT22;58504;48.770;9.148;2023-06-10T12:49:22;26.00;49.80
62589;DHT22;58504;48.770;9.148;2023-06-10T12:51:49;26.00;49.90
62589;DHT22;58504;48.770;9.148;2023-06-10T12:54:16;25.90;50.00
62589;DHT22;58504;48.770;9.148;2023-06-10T12:56:42;26.00;50.10
62589;DHT22;58504;48.770;9.148;2023-06-10T12:59:10;25.90;50.10
62589;DHT22;58504;48.770;9.148;2023-06-10T13:01:37;25.90;50.20
62589;DHT22;58504;48.770;9.148;2023-06-10T13:04:05;25.90;50.30
62589;DHT22;58504;48.770;9.148;2023-06-10T13:06:34;25.80;50.30
62589;DHT22;58504;48.770;9.148;2023-06-10T13:09:05;25.80;50.30
62589;DHT22;58504;48.770;9.148;2023-06-10T13:11:33;25.80;50.30
62589;DHT22;58504;48.770;9.148;2023-06-10T13:14:00;25.80;50.30
62589;DHT22;58504;48.770;9.148;2023-06-10T13:16:28;25.80;50.30
62589;DHT22;58504;48.770;9.148;2023-06-10T13:18:55;25.80;50.40
62589;DHT22;58504;48.770;9.148;2023-06-10T13:21:22;25.80;50.40
62589;DHT22;58504;48.770;9.148;2023-06-10T13:23:51;25.80;50.30
62589;DHT22;58504;48.770;9.148;2023-06-10T13:26:17;25.80;50.30
62589;DHT22;58504;48.770;9.148;2023-06-10T13:28:44;25.90;50.80
62589;DHT22;58504;48.770;9.148;2023-06-10T13:31:11;25.80;50.20
62589;DHT22;58504;48.770;9.148;2023-06-10T13:33:38;25.90;50.20
62589;DHT22;58504;48.770;9.148;2023-06-10T13:36:05;25.90;50.20
62589;DHT22;58504;48.770;9.148;2023-06-10T13:38:32;25.90;50.20
62589;DHT22;58504;48.770;9.148;2023-06-10T13:41:00;25.80;50.20
62589;DHT22;58504;48.770;9.148;2023-06-10T13:43:27;25.90;50.20
62589;DHT22;58504;48.770;9.148;2023-06-10T13:45:54;25.90;50.20
62589;DHT22;58504;48.770;9.148;2023-06-10T13:48:21;25.90;50.20
62589;DHT22;58504;48.770;9.148;2023-06-10T13:50:48;25.90;50.10
62589;DHT22;58504;48.770;9.148;2023-06-10T13:53:14;26.00;50.00
62589;DHT22;58504;48.770;9.148;2023-06-10T13:55:41;26.00;50.00
62589;DHT22;58504;48.770;9.148;2023-06-10T13:58:09;26.00;50.00
62589;DHT22;58504;48.770;9.148;2023-06-10T14:00:36;26.00;49.80
62589;DHT22;58504;48.770;9.148;2023-06-10T14:03:03;26.00;49.90
62589;DHT22;58504;48.770;9.148;2023-06-10T14:05:29;26.00;49.90
62589;DHT22;58504;48.770;9.148;2023-06-10T14:07:57;26.00;50.00
62589;DHT22;58504;48.770;9.148;2023-06-10T14:10:23;25.90;50.00
62589;DHT22;58504;48.770;9.148;2023-06-10T14:12:50;25.90;50.00
62589;DHT22;58504;48.770;9.148;2023-06-10T14:15:19;25.90;50.10
62589;DHT22;58504;48.770;9.148;2023-06-10T14:17:46;25.80;50.10
62589;DHT22;58504;48.770;9.148;2023-06-10T14:20:13;25.80;50.20
62589;DHT22;58504;48.770;9.148;2023-06-10T14:22:40;25.80;50.20
62589;DHT22;58504;48.770;9.148;2023-06-10T14:25:07;25.80;50.20
62589;DHT22;58504;48.770;9.148;2023-06-10T14:27:34;25.80;50.20
62589;DHT22;58504;48.770;9.148;2023-06-10T14:30:01;25.80;50.20
62589;DHT22;58504;48.770;9.148;2023-06-10T14:32:31;25.80;50.30
62589;DHT22;58504;48.770;9.148;2023-06-10T14:34:57;25.80;50.40
62589;DHT22;58504;48.770;9.148;2023-06-10T14:37:24;25.70;50.40
62589;DHT22;58504;48.770;9.148;2023-06-10T14:39:51;25.80;50.60
62589;DHT22;58504;48.770;9.148;2023-06-10T14:42:17;25.70;50.50
62589;DHT22;58504;48.770;9.148;2023-06-10T14:44:44;25.70;50.60
62589;DHT22;58504;48.770;9.148;2023-06-10T14:47:11;25.60;50.60
62589;DHT22;58504;48.770;9.148;2023-06-10T14:49:39;25.70;50.70
62589;DHT22;58504;48.770;9.148;2023-06-10T14:52:07;25.60;50.70
62589;DHT22;58504;48.770;9.148;2023-06-10T14:54:34;25.60;50.80
62589;DHT22;58504;48.770;9.148;2023-06-10T14:57:01;25.60;50.90
62589;DHT22;58504;48.770;9.148;2023-06-10T14:59:28;25.60;51.00
62589;DHT22;58504;48.770;9.148;2023-06-10T15:01:55;25.60;49.50
62589;DHT22;58504;48.770;9.148;2023-06-10T15:04:22;25.60;49.90
62589;DHT22;58504;48.770;9.148;2023-06-10T15:06:50;25.80;44.60
62589;DHT22;58504;48.770;9.148;2023-06-10T15:09:17;26.00;43.40
62589;DHT22;58504;48.770;9.148;2023-06-10T15:11:44;26.10;42.50
62589;DHT22;58504;48.770;9.148;2023-06-10T15:14:11;26.20;42.70
62589;DHT22;58504;48.770;9.148;2023-06-10T15:16:37;26.20;44.00
62589;DHT22;58504;48.770;9.148;2023-06-10T15:19:04;26.20;43.80
62589;DHT22;58504;48.770;9.148;2023-06-10T15:21:33;26.20;43.50
62589;DHT22;58504;48.770;9.148;2023-06-10T15:24:02;26.30;42.70
62589;DHT22;58504;48.770;9.148;2023-06-10T15:26:28;26.30;42.90
62589;DHT22;58504;48.770;9.148;2023-06-10T15:28:55;26.40;43.00
62589;DHT22;58504;48.770;9.148;2023-06-10T15:31:22;26.40;43.00
62589;DHT22;58504;48.770;9.148;2023-06-10T15:33:49;26.40;43.50